createdAt,value
2022-09-10T00:00:55.178Z,10.57
2022-09-10T00:03:33.641Z,9.98
2022-09-10T00:06:12.544Z,10.55
2022-09-10T00:08:40.953Z,10.40
2022-09-10T00:11:21.187Z,10.27
2022-09-10T00:14:00.168Z,11.38
2022-09-10T00:16:34.085Z,9.80
2022-09-10T00:19:07.057Z,14.07
2022-09-10T00:21:36.029Z,11.48
2022-09-10T00:24:09.286Z,12.77
2022-09-10T00:26:46.078Z,17.27
2022-09-10T00:29:17.359Z,12.57
2022-09-10T00:31:45.840Z,12.23
2022-09-10T00:34:18.708Z,12.13
2022-09-10T00:36:47.244Z,15.85
2022-09-10T00:39:25.888Z,15.27
2022-09-10T00:41:55.486Z,11.65
2022-09-10T00:44:42.330Z,18.08
2022-09-10T00:47:13.622Z,11.73
2022-09-10T00:49:45.414Z,16.83
2022-09-10T00:52:14.421Z,13.75
2022-09-10T00:54:43.944Z,12.23
2022-09-10T00:57:14.205Z,11.32
2022-09-10T00:59:55.256Z,11.52
2022-09-10T01:02:23.700Z,11.20
2022-09-10T01:04:52.121Z,13.65
2022-09-10T01:07:29.493Z,14.25
2022-09-10T01:09:59.686Z,11.68
2022-09-10T01:12:35.994Z,13.18
2022-09-10T01:15:19.446Z,14.05
2022-09-10T01:18:03.891Z,18.30
2022-09-10T01:20:40.831Z,12.85
2022-09-10T01:23:19.430Z,15.02
2022-09-10T01:26:12.733Z,13.38
2022-09-10T01:28:41.132Z,12.23
2022-09-10T01:31:26.654Z,12.82
2022-09-10T01:34:08.653Z,12.48
2022-09-10T01:36:43.197Z,11.95
2022-09-10T01:39:24.421Z,15.77
2022-09-10T01:41:54.884Z,12.23
2022-09-10T01:44:46.074Z,12.23
2022-09-10T01:47:20.916Z,13.93
2022-09-10T01:50:09.208Z,17.30
2022-09-10T01:52:45.194Z,11.60
2022-09-10T01:55:24.170Z,12.50
2022-09-10T01:57:58.319Z,15.18
2022-09-10T02:00:34.895Z,15.48
2022-09-10T02:03:16.619Z,19.55
2022-09-10T02:05:49.992Z,17.50
2022-09-10T02:08:24.675Z,16.63
2022-09-10T02:10:54.699Z,18.50
2022-09-10T02:13:26.679Z,13.68
2022-09-10T02:16:24.360Z,14.95
2022-09-10T02:18:52.744Z,14.07
2022-09-10T02:21:21.207Z,18.63
2022-09-10T02:23:53.868Z,20.95
2022-09-10T02:26:22.337Z,18.20
2022-09-10T02:28:51.094Z,16.33
2022-09-10T02:31:19.547Z,19.38
2022-09-10T02:33:47.973Z,16.23
2022-09-10T02:36:16.328Z,18.00
2022-09-10T02:38:44.910Z,12.68
2022-09-10T02:41:18.368Z,16.05
2022-09-10T02:43:52.417Z,16.33
2022-09-10T02:46:20.993Z,15.38
2022-09-10T02:48:55.530Z,15.85
2022-09-10T02:51:35.168Z,15.90
2022-09-10T02:54:14.316Z,17.13
2022-09-10T02:56:43.827Z,12.23
2022-09-10T02:59:12.311Z,18.60
2022-09-10T03:01:40.742Z,31.67
2022-09-10T03:04:21.132Z,68.22
2022-09-10T03:06:49.948Z,25.08
2022-09-10T03:09:18.342Z,18.85
2022-09-10T03:11:49.333Z,20.35
2022-09-10T03:14:20.727Z,32.08
2022-09-10T03:16:49.258Z,18.10
2022-09-10T03:19:17.960Z,23.52
2022-09-10T03:21:47.844Z,15.93
2022-09-10T03:24:16.503Z,15.48
2022-09-10T03:26:57.711Z,13.50
2022-09-10T03:29:26.103Z,14.55
2022-09-10T03:31:55.167Z,14.40
2022-09-10T03:34:25.073Z,13.30
2022-09-10T03:36:53.581Z,17.17
2022-09-10T03:39:27.144Z,26.20
2022-09-10T03:41:55.535Z,44.28
2022-09-10T03:44:24.220Z,41.25
2022-09-10T03:46:53.425Z,38.85
2022-09-10T03:49:22.120Z,24.67
2022-09-10T03:51:54.516Z,32.47
2022-09-10T03:54:29.689Z,15.93
2022-09-10T03:56:58.094Z,23.85
2022-09-10T03:59:26.566Z,14.73
2022-09-10T04:01:59.518Z,16.13
2022-09-10T04:04:28.161Z,14.50
2022-09-10T04:06:56.486Z,20.55
2022-09-10T04:09:24.817Z,13.52
2022-09-10T04:11:53.342Z,18.75
2022-09-10T04:14:24.075Z,35.90
2022-09-10T04:16:52.742Z,26.45
2022-09-10T04:19:21.367Z,14.45
2022-09-10T04:21:53.266Z,10.30
2022-09-10T04:24:21.896Z,12.68
2022-09-10T04:26:50.618Z,12.77
2022-09-10T04:29:19.751Z,13.05
2022-09-10T04:31:48.206Z,15.35
2022-09-10T04:34:18.945Z,13.95
2022-09-10T04:36:49.958Z,11.68
2022-09-10T04:39:19.769Z,12.30
2022-09-10T04:41:49.962Z,13.02
2022-09-10T04:44:20.439Z,12.15
2022-09-10T04:46:59.143Z,11.40
2022-09-10T04:49:27.602Z,11.90
2022-09-10T04:51:56.763Z,18.00
2022-09-10T04:54:26.965Z,11.80
2022-09-10T04:56:55.471Z,15.75
2022-09-10T04:59:24.531Z,12.35
2022-09-10T05:01:53.042Z,11.88
2022-09-10T05:04:21.484Z,14.88
2022-09-10T05:07:00.463Z,12.50
2022-09-10T05:09:34.219Z,14.18
2022-09-10T05:12:05.281Z,12.48
2022-09-10T05:14:34.360Z,11.55
2022-09-10T05:17:08.432Z,9.90
2022-09-10T05:19:36.837Z,10.82
2022-09-10T05:22:08.044Z,11.80
2022-09-10T05:24:36.647Z,9.32
2022-09-10T05:27:17.417Z,12.05
2022-09-10T05:29:47.466Z,8.48
2022-09-10T05:32:22.000Z,9.85
2022-09-10T05:35:00.648Z,10.35
2022-09-10T05:37:29.015Z,7.72
2022-09-10T05:39:57.463Z,11.88
2022-09-10T05:42:26.130Z,9.20
2022-09-10T05:44:54.599Z,8.65
2022-09-10T05:47:34.826Z,9.05
2022-09-10T05:50:09.629Z,7.22
2022-09-10T05:52:38.496Z,8.32
2022-09-10T05:55:08.483Z,6.43
2022-09-10T05:57:36.942Z,7.03
2022-09-10T06:00:08.079Z,8.05
2022-09-10T06:02:42.930Z,6.22
2022-09-10T06:05:30.774Z,9.70
2022-09-10T06:08:08.407Z,7.70
2022-09-10T06:10:54.228Z,7.25
2022-09-10T06:13:33.695Z,7.95
2022-09-10T06:16:07.915Z,7.38
2022-09-10T06:18:47.265Z,7.40
2022-09-10T06:21:19.736Z,9.05
2022-09-10T06:23:55.586Z,7.60
2022-09-10T06:26:26.470Z,8.15
2022-09-10T06:28:59.243Z,10.23
2022-09-10T06:31:28.037Z,7.13
2022-09-10T06:33:57.273Z,7.22
2022-09-10T06:36:29.399Z,7.50
2022-09-10T06:38:58.524Z,7.35
2022-09-10T06:41:36.504Z,9.52
2022-09-10T06:44:10.428Z,9.25
2022-09-10T06:47:28.343Z,7.68
2022-09-10T06:49:36.792Z,9.82
2022-09-10T06:52:06.692Z,7.88
2022-09-10T06:54:35.832Z,6.75
2022-09-10T06:57:29.752Z,5.82
2022-09-10T07:00:03.005Z,5.93
2022-09-10T07:02:32.587Z,6.95
2022-09-10T07:05:01.448Z,7.47
2022-09-10T07:07:32.485Z,7.70
2022-09-10T07:10:01.891Z,7.22
2022-09-10T07:12:31.463Z,9.25
2022-09-10T07:14:59.961Z,5.80
2022-09-10T07:17:35.099Z,47.65
2022-09-10T07:20:04.141Z,12.13
2022-09-10T07:22:44.598Z,5.82
2022-09-10T07:25:18.885Z,6.63
2022-09-10T07:28:06.104Z,5.87
2022-09-10T07:30:44.365Z,5.95
2022-09-10T07:33:24.663Z,5.85
2022-09-10T07:35:54.192Z,7.85
2022-09-10T07:38:23.738Z,9.35
2022-09-10T07:40:59.697Z,6.90
2022-09-10T07:43:33.618Z,6.55
2022-09-10T07:46:04.266Z,5.25
2022-09-10T07:48:34.386Z,7.88
2022-09-10T07:51:06.809Z,5.15
2022-09-10T07:53:50.803Z,6.43
2022-09-10T07:56:33.865Z,4.60
2022-09-10T07:59:10.132Z,4.60
2022-09-10T08:01:46.119Z,5.63
2022-09-10T08:04:17.039Z,5.72
2022-09-10T08:06:55.591Z,6.55
2022-09-10T08:09:24.650Z,5.03
2022-09-10T08:12:01.421Z,5.78
2022-09-10T08:14:30.343Z,6.13
2022-09-10T08:17:03.837Z,9.95
2022-09-10T08:19:38.261Z,7.20
2022-09-10T08:22:12.717Z,6.18
2022-09-10T08:24:48.986Z,8.32
2022-09-10T08:27:18.433Z,5.50
2022-09-10T08:29:53.664Z,8.21
2022-09-10T08:32:22.203Z,4.50
2022-09-10T08:34:52.912Z,4.82
2022-09-10T08:37:21.498Z,4.30
2022-09-10T08:39:50.961Z,5.25
2022-09-10T08:42:25.050Z,4.68
2022-09-10T08:44:56.182Z,4.47
2022-09-10T08:47:49.629Z,5.68
2022-09-10T08:50:23.400Z,4.47
2022-09-10T08:53:05.075Z,4.72
2022-09-10T08:55:34.935Z,6.38
2022-09-10T08:58:24.624Z,5.82
2022-09-10T09:00:56.343Z,5.55
2022-09-10T09:03:34.856Z,3.97
2022-09-10T09:06:04.935Z,6.13
2022-09-10T09:08:48.760Z,4.05
2022-09-10T09:11:27.143Z,6.88
2022-09-10T09:14:20.828Z,6.60
2022-09-10T09:22:31.841Z,4.78
2022-09-10T09:25:01.328Z,5.32
2022-09-10T09:27:32.516Z,4.63
2022-09-10T09:30:03.591Z,4.55
2022-09-10T09:32:37.689Z,5.13
2022-09-10T09:35:30.952Z,10.65
2022-09-10T09:38:00.828Z,7.13
2022-09-10T09:40:32.098Z,5.53
2022-09-10T09:43:24.286Z,4.50
2022-09-10T09:45:54.409Z,4.78
2022-09-10T09:48:24.898Z,5.57
2022-09-10T09:50:56.872Z,5.27
2022-09-10T09:53:31.352Z,5.03
2022-09-10T09:56:01.321Z,5.00
2022-09-10T09:58:31.483Z,4.72
2022-09-10T10:01:19.251Z,5.90
2022-09-10T10:03:54.918Z,6.05
2022-09-10T10:06:35.037Z,7.47
2022-09-10T10:09:05.120Z,6.78
2022-09-10T10:11:39.733Z,5.07
2022-09-10T10:14:20.225Z,9.55
2022-09-10T10:17:00.975Z,12.55
2022-09-10T10:19:36.027Z,128.85
2022-09-10T10:22:15.271Z,5.75
2022-09-10T10:24:54.815Z,6.38
2022-09-10T10:27:45.719Z,7.78
2022-09-10T10:30:18.672Z,8.60
2022-09-10T10:32:48.531Z,6.13
2022-09-10T10:35:33.211Z,5.63
2022-09-10T10:38:01.654Z,4.63
2022-09-10T10:40:49.025Z,6.43
2022-09-10T10:43:17.690Z,9.20
2022-09-10T10:45:58.107Z,6.05
2022-09-10T10:48:42.784Z,7.75
2022-09-10T10:51:20.478Z,6.40
2022-09-10T10:53:55.765Z,5.72
2022-09-10T10:56:24.081Z,8.25
2022-09-10T10:58:54.410Z,16.83
2022-09-10T11:01:34.336Z,8.18
2022-09-10T11:04:12.169Z,8.13
2022-09-10T11:06:55.316Z,7.40
2022-09-10T11:09:39.301Z,13.40
2022-09-10T11:12:14.547Z,5.50
2022-09-10T11:14:42.968Z,19.40
2022-09-10T11:17:17.736Z,11.60
2022-09-10T11:20:11.179Z,11.13
2022-09-10T11:22:45.979Z,3.97
2022-09-10T11:25:20.881Z,13.73
2022-09-10T11:27:55.210Z,9.13
2022-09-10T11:30:23.775Z,5.43
2022-09-10T11:33:05.918Z,5.72
2022-09-10T11:35:46.206Z,6.55
2022-09-10T11:41:34.359Z,6.53
2022-09-10T11:44:08.595Z,6.03
2022-09-10T11:46:39.653Z,7.90
2022-09-10T11:49:23.355Z,9.95
2022-09-10T11:51:51.763Z,8.50
2022-09-10T11:54:26.423Z,6.50
2022-09-10T11:57:05.630Z,8.95
2022-09-10T11:59:57.806Z,13.23
2022-09-10T12:02:27.299Z,35.05
2022-09-10T12:05:19.656Z,32.65
2022-09-10T12:08:15.411Z,35.47
2022-09-10T12:10:58.378Z,11.60
2022-09-10T12:13:27.024Z,10.27
2022-09-10T12:16:16.354Z,8.18
2022-09-10T12:18:46.460Z,25.63
2022-09-10T12:21:32.857Z,24.27
2022-09-10T12:27:44.153Z,24.65
2022-09-10T12:30:36.615Z,12.80
2022-09-10T12:33:12.111Z,42.63
2022-09-10T12:35:45.065Z,46.97
2022-09-10T12:38:33.137Z,19.20
2022-09-10T12:41:10.979Z,22.65
2022-09-10T12:43:40.581Z,22.65
2022-09-10T12:46:14.397Z,37.40
2022-09-10T12:48:46.833Z,29.45
2022-09-10T12:51:19.056Z,26.25
2022-09-10T12:54:06.591Z,36.13
2022-09-10T12:56:47.246Z,26.15
2022-09-10T12:59:20.632Z,39.92
2022-09-10T13:01:54.783Z,48.55
2022-09-10T13:04:31.037Z,36.63
2022-09-10T13:07:19.847Z,45.90
2022-09-10T13:09:56.883Z,39.10
2022-09-10T13:12:26.909Z,30.10
2022-09-10T13:14:57.879Z,20.20
2022-09-10T13:17:38.455Z,29.27
2022-09-10T13:20:28.375Z,27.20
2022-09-10T13:23:06.753Z,23.95
2022-09-10T13:25:43.481Z,34.38
2022-09-10T13:28:29.754Z,65.53
2022-09-10T13:31:09.467Z,135.00
2022-09-10T13:33:50.138Z,169.20
2022-09-10T13:36:21.869Z,70.45
2022-09-10T13:39:06.241Z,75.80
2022-09-10T13:41:53.236Z,133.90
2022-09-10T13:44:26.536Z,159.40
2022-09-10T13:46:57.657Z,164.40
2022-09-10T13:49:26.712Z,178.88
2022-09-10T13:52:01.215Z,154.93
2022-09-10T13:54:33.713Z,123.78
2022-09-10T13:57:18.203Z,87.95
2022-09-10T13:59:49.520Z,68.28
2022-09-10T14:02:47.714Z,150.00
2022-09-10T14:05:34.352Z,73.13
2022-09-10T14:08:05.751Z,72.97
2022-09-10T14:10:36.549Z,129.75
2022-09-10T14:13:11.940Z,52.80
2022-09-10T14:15:40.687Z,70.18
2022-09-10T14:18:10.121Z,57.03
2022-09-10T14:20:39.870Z,65.30
2022-09-10T14:23:18.314Z,100.97
2022-09-10T14:26:10.218Z,69.18
2022-09-10T14:28:49.724Z,87.43
2022-09-10T14:31:30.272Z,97.70
2022-09-10T14:34:27.615Z,80.43
2022-09-10T14:37:01.731Z,86.45
2022-09-10T14:39:30.461Z,71.82
2022-09-10T14:42:09.366Z,73.50
2022-09-10T14:44:41.965Z,99.28
2022-09-10T14:47:43.387Z,110.93
2022-09-10T14:50:29.181Z,52.85
2022-09-10T14:53:03.256Z,69.20
2022-09-10T14:55:42.045Z,86.90
2022-09-10T14:58:11.685Z,106.57
2022-09-10T15:00:48.666Z,292.38
2022-09-10T15:03:22.678Z,259.48
2022-09-10T15:05:51.815Z,214.30
2022-09-10T15:08:26.113Z,140.00
2022-09-10T15:10:56.639Z,75.95
2022-09-10T15:13:24.955Z,62.85
2022-09-10T15:15:54.377Z,66.82
2022-09-10T15:18:23.223Z,77.40
2022-09-10T15:21:00.644Z,116.95
2022-09-10T15:23:29.231Z,78.88
2022-09-10T15:25:57.753Z,58.03
2022-09-10T15:28:36.123Z,81.82
2022-09-10T15:31:05.007Z,85.00
2022-09-10T15:33:44.004Z,90.20
2022-09-10T15:36:12.510Z,95.00
2022-09-10T15:38:40.998Z,87.28
2022-09-10T15:41:13.432Z,104.47
2022-09-10T15:43:51.872Z,69.00
2022-09-10T15:46:22.308Z,107.03
2022-09-10T15:48:52.083Z,83.85
2022-09-10T15:51:21.798Z,110.32
2022-09-10T15:53:56.422Z,77.82
2022-09-10T15:56:27.049Z,83.05
2022-09-10T15:58:56.789Z,74.95
2022-09-10T16:01:26.153Z,89.97
2022-09-10T16:03:56.280Z,76.25
2022-09-10T16:06:25.583Z,84.40
2022-09-10T16:09:05.643Z,71.50
2022-09-10T16:11:35.365Z,73.82
2022-09-10T16:14:06.565Z,75.38
2022-09-10T16:16:46.110Z,64.88
2022-09-10T16:19:14.698Z,65.07
2022-09-10T16:21:46.160Z,86.57
2022-09-10T16:24:14.550Z,62.35
2022-09-10T16:26:44.029Z,57.90
2022-09-10T16:29:16.513Z,58.97
2022-09-10T16:31:52.895Z,48.58
2022-09-10T16:34:22.547Z,48.40
2022-09-10T16:36:53.418Z,48.00
2022-09-10T16:39:23.470Z,43.55
2022-09-10T16:41:51.866Z,50.60
2022-09-10T16:44:23.472Z,57.42
2022-09-10T16:46:51.846Z,45.45
2022-09-10T16:49:20.202Z,52.97
2022-09-10T16:51:49.726Z,37.65
2022-09-10T16:54:22.837Z,39.50
2022-09-10T16:56:51.545Z,44.00
2022-09-10T16:59:21.786Z,42.33
2022-09-10T17:01:54.258Z,43.55
2022-09-10T17:04:28.917Z,44.78
2022-09-10T17:06:58.345Z,40.17
2022-09-10T17:09:28.163Z,34.63
2022-09-10T17:11:57.171Z,38.42
2022-09-10T17:14:29.542Z,30.55
2022-09-10T17:16:59.059Z,25.98
2022-09-10T17:19:38.418Z,29.73
2022-09-10T17:22:07.556Z,25.35
2022-09-10T17:24:35.922Z,23.90
2022-09-10T17:27:04.376Z,24.77
2022-09-10T17:29:33.359Z,29.80
2022-09-10T17:32:01.780Z,23.15
2022-09-10T17:34:30.162Z,33.20
2022-09-10T17:37:09.005Z,23.20
2022-09-10T17:39:37.520Z,30.65
2022-09-10T17:42:06.383Z,27.63
2022-09-10T17:44:34.707Z,27.25
2022-09-10T17:47:03.035Z,24.85
2022-09-10T17:49:31.433Z,26.65
2022-09-10T17:52:00.759Z,24.77
2022-09-10T17:54:29.546Z,21.65
2022-09-10T17:56:58.114Z,18.17
2022-09-10T17:59:33.064Z,19.60
2022-09-10T18:02:02.253Z,17.13
2022-09-10T18:04:31.147Z,18.33
2022-09-10T18:07:00.619Z,15.80
2022-09-10T18:09:29.023Z,14.05
2022-09-10T18:11:57.703Z,17.52
2022-09-10T18:14:26.521Z,18.00
2022-09-10T18:16:56.273Z,16.63
2022-09-10T18:19:24.961Z,16.75
2022-09-10T18:21:53.473Z,16.88
2022-09-10T18:24:25.578Z,15.75
2022-09-10T18:26:54.635Z,15.75
2022-09-10T18:29:25.194Z,13.30
2022-09-10T18:31:54.715Z,17.88
2022-09-10T18:34:25.108Z,15.02
2022-09-10T18:36:54.789Z,17.15
2022-09-10T18:39:24.583Z,14.70
2022-09-10T18:42:03.231Z,16.27
2022-09-10T18:44:36.836Z,15.98
2022-09-10T18:47:17.672Z,17.58
2022-09-10T18:49:56.623Z,19.10
2022-09-10T18:52:25.117Z,17.77
2022-09-10T18:54:53.488Z,15.00
2022-09-10T18:57:21.789Z,16.23
2022-09-10T18:59:55.408Z,15.35
2022-09-10T19:02:33.888Z,10.88
2022-09-10T19:05:17.811Z,10.57
2022-09-10T19:07:48.630Z,10.40
2022-09-10T19:10:17.153Z,9.55
2022-09-10T19:12:45.601Z,10.63
2022-09-10T19:15:19.007Z,9.38
2022-09-10T19:17:47.569Z,9.32
2022-09-10T19:20:16.012Z,7.55
2022-09-10T19:22:44.398Z,7.88
2022-09-10T19:25:23.282Z,8.88
2022-09-10T19:28:02.621Z,7.85
2022-09-10T19:30:40.990Z,7.13
2022-09-10T19:33:18.346Z,7.15
2022-09-10T19:35:56.944Z,8.88
2022-09-10T19:38:37.755Z,6.95
2022-09-10T19:41:26.238Z,7.40
2022-09-10T19:44:05.728Z,6.97
2022-09-10T19:46:41.393Z,8.50
2022-09-10T19:49:10.607Z,9.10
2022-09-10T19:51:40.972Z,7.07
2022-09-10T19:54:10.413Z,6.90
2022-09-10T19:56:40.322Z,9.73
2022-09-10T19:59:10.247Z,9.00
2022-09-10T20:01:40.342Z,8.10
2022-09-10T20:04:10.154Z,10.82
2022-09-10T20:06:39.227Z,8.38
2022-09-10T20:09:18.361Z,8.65
2022-09-10T20:11:56.892Z,8.43
2022-09-10T20:14:25.829Z,9.70
2022-09-10T20:16:55.093Z,8.43
2022-09-10T20:19:23.494Z,8.68
2022-09-10T20:21:52.164Z,7.68
2022-09-10T20:24:20.590Z,7.07
2022-09-10T20:26:49.432Z,6.68
2022-09-10T20:29:18.439Z,6.88
2022-09-10T20:31:53.026Z,8.90
2022-09-10T20:34:22.335Z,9.73
2022-09-10T20:36:51.668Z,7.00
2022-09-10T20:39:21.669Z,6.82
2022-09-10T20:41:50.157Z,6.72
2022-09-10T20:44:30.402Z,7.40
2022-09-10T20:46:58.915Z,9.38
2022-09-10T20:49:27.398Z,6.78
2022-09-10T20:51:56.528Z,12.48
2022-09-10T20:54:24.991Z,8.93
2022-09-10T20:56:53.421Z,6.38
2022-09-10T20:59:26.863Z,6.13
2022-09-10T21:01:57.002Z,11.27
2022-09-10T21:04:26.762Z,5.78
2022-09-10T21:06:55.661Z,7.05
2022-09-10T21:09:27.358Z,6.97
2022-09-10T21:12:06.429Z,6.18
2022-09-10T21:14:34.815Z,5.72
2022-09-10T21:17:03.339Z,6.18
2022-09-10T21:19:31.704Z,5.75
2022-09-10T21:22:10.185Z,8.27
2022-09-10T21:24:39.701Z,6.72
2022-09-10T21:27:08.142Z,6.13
2022-09-10T21:29:36.680Z,6.30
2022-09-10T21:32:05.090Z,5.90
2022-09-10T21:34:33.734Z,7.60
2022-09-10T21:37:02.372Z,7.65
2022-09-10T21:39:30.819Z,6.22
2022-09-10T21:42:00.105Z,6.28
2022-09-10T21:44:28.403Z,7.35
2022-09-10T21:46:56.754Z,6.03
2022-09-10T21:49:25.190Z,6.93
2022-09-10T21:51:53.727Z,7.78
2022-09-10T21:54:32.319Z,7.30
2022-09-10T21:57:00.695Z,6.35
2022-09-10T21:59:34.063Z,5.57
2022-09-10T22:02:02.605Z,6.40
2022-09-10T22:04:31.062Z,5.32
2022-09-10T22:06:59.463Z,7.72
2022-09-10T22:09:27.822Z,5.40
2022-09-10T22:11:57.076Z,5.15
2022-09-10T22:14:25.995Z,5.90
2022-09-10T22:16:54.574Z,6.45
2022-09-10T22:19:24.235Z,7.60
2022-09-10T22:21:54.559Z,6.88
2022-09-10T22:24:23.017Z,5.28
2022-09-10T22:26:51.419Z,6.45
2022-09-10T22:29:24.003Z,7.38
2022-09-10T22:31:52.769Z,5.57
2022-09-10T22:34:31.168Z,6.78
2022-09-10T22:36:59.620Z,5.43
2022-09-10T22:39:30.111Z,6.28
2022-09-10T22:41:58.816Z,5.28
2022-09-10T22:44:30.730Z,7.22
2022-09-10T22:47:00.328Z,5.03
2022-09-10T22:49:32.442Z,5.40
2022-09-10T22:52:04.492Z,4.47
2022-09-10T22:54:32.932Z,5.78
2022-09-10T22:57:01.357Z,5.47
2022-09-10T22:59:37.908Z,8.38
2022-09-10T23:02:08.118Z,5.53
2022-09-10T23:04:36.446Z,4.70
2022-09-10T23:07:04.833Z,4.50
2022-09-10T23:09:33.224Z,5.03
2022-09-10T23:12:01.748Z,5.18
2022-09-10T23:14:30.203Z,5.28
2022-09-10T23:16:58.560Z,5.45
2022-09-10T23:19:28.198Z,4.68
2022-09-10T23:21:56.649Z,5.00
2022-09-10T23:24:26.721Z,5.05
2022-09-10T23:26:55.053Z,4.50
2022-09-10T23:29:24.449Z,5.28
2022-09-10T23:31:55.672Z,5.20
2022-09-10T23:34:24.617Z,5.65
2022-09-10T23:37:10.984Z,7.25
2022-09-10T23:39:39.888Z,5.03
2022-09-10T23:42:18.435Z,5.68
2022-09-10T23:44:47.032Z,4.85
2022-09-10T23:47:25.425Z,5.03
2022-09-10T23:49:53.800Z,5.78
2022-09-10T23:52:22.093Z,6.00
2022-09-10T23:54:50.407Z,6.55
2022-09-10T23:57:24.064Z,5.75
2022-09-10T23:59:57.182Z,5.33
